Time;durP1;ratioP1;P1;durP2;ratioP2;P2;SDS_P1;SDS_P2;PMS_P1;PMS_P2;Temp;Humidity;BMP_temperature;BMP_pressure;BME280_temperature;BME280_humidity;BME280_pressure;Samples;Min_cycle;Max_cycle;Signal;HPM_P1;HPM_P2
2022/09/22 00:02:17;;;;;;;4.88;2.17;;;;;;;7.75;100.00;101660.13;5187005;28;20427;-75
2022/09/22 00:04:47;;;;;;;6.15;1.75;;;;;;;7.64;100.00;101657.59;5187849;28;20042;-76
2022/09/22 00:07:17;;;;;;;5.72;2.33;;;;;;;7.64;100.00;101662.81;5185967;28;20034;-76
2022/09/22 00:09:48;;;;;;;6.80;2.00;;;;;;;7.61;100.00;101662.81;5180458;28;20034;-77
2022/09/22 00:12:18;;;;;;;5.05;1.92;;;;;;;7.65;100.00;101659.31;5183653;28;20036;-77
2022/09/22 00:14:48;;;;;;;4.57;2.20;;;;;;;7.66;100.00;101666.25;5182650;28;20156;-75
2022/09/22 00:17:19;;;;;;;6.10;2.00;;;;;;;7.70;100.00;101664.50;5187194;28;20032;-76
2022/09/22 00:19:49;;;;;;;5.63;2.13;;;;;;;7.76;100.00;101662.72;5189124;28;20494;-76
2022/09/22 00:22:20;;;;;;;5.35;2.30;;;;;;;7.63;100.00;101660.19;5186996;28;20029;-76
2022/09/22 00:24:51;;;;;;;4.70;1.90;;;;;;;7.70;100.00;101649.75;5183874;28;20017;-77
2022/09/22 00:27:23;;;;;;;4.88;1.85;;;;;;;7.91;100.00;101652.19;5188731;28;20332;-76
2022/09/22 00:29:53;;;;;;;5.43;1.80;;;;;;;7.94;100.00;101652.19;5184308;28;20573;-78
2022/09/22 00:32:23;;;;;;;6.10;2.13;;;;;;;7.85;100.00;101654.84;5191429;28;20022;-76
2022/09/22 00:34:54;;;;;;;5.32;1.95;;;;;;;7.59;100.00;101658.50;5191168;28;20021;-76
2022/09/22 00:37:24;;;;;;;3.88;1.88;;;;;;;7.44;100.00;101649.06;5190698;28;20510;-76
2022/09/22 00:39:54;;;;;;;5.22;1.88;;;;;;;7.55;100.00;101652.44;5190650;28;20014;-76
2022/09/22 00:42:24;;;;;;;6.35;1.75;;;;;;;7.70;100.00;101648.91;5191735;28;20124;-75
2022/09/22 00:44:55;;;;;;;4.60;1.85;;;;;;;7.40;100.00;101646.47;5191097;28;20021;-74
2022/09/22 00:47:31;;;;;;;5.40;1.80;;;;;;;7.28;100.00;101651.72;5190360;28;20578;-74
2022/09/22 00:50:16;;;;;;;3.47;1.73;;;;;;;7.19;100.00;101650.91;5190216;28;20080;-74
2022/09/22 00:53:02;;;;;;;4.32;1.63;;;;;;;7.13;100.00;101649.19;5212821;28;20383;-75
2022/09/22 00:55:35;;;;;;;2.70;1.55;;;;;;;7.06;100.00;101646.63;5185523;28;20299;-74
2022/09/22 00:58:10;;;;;;;3.65;1.30;;;;;;;7.26;100.00;101652.63;5185274;28;20037;-73
2022/09/22 01:00:41;;;;;;;3.45;1.60;;;;;;;7.28;100.00;101648.28;5189182;28;20507;-74
2022/09/22 01:03:17;;;;;;;3.55;1.35;;;;;;;7.21;100.00;101650.06;5192541;28;20033;-74
2022/09/22 01:05:51;;;;;;;2.85;1.50;;;;;;;7.18;100.00;101642.28;5193207;28;20021;-74
2022/09/22 01:08:23;;;;;;;4.38;1.73;;;;;;;7.19;100.00;101645.72;5189353;28;20502;-74
2022/09/22 01:10:54;;;;;;;2.83;1.60;;;;;;;7.39;100.00;101645.59;5191029;28;20037;-74
2022/09/22 01:13:46;;;;;;;4.03;1.60;;;;;;;7.42;100.00;101636.94;5190524;28;20100;-74
2022/09/22 01:16:19;;;;;;;3.65;1.70;;;;;;;7.35;100.00;101633.50;5189592;28;20052;-74
2022/09/22 01:18:55;;;;;;;7.75;2.17;;;;;;;7.31;100.00;101637.00;5190356;28;20032;-74
2022/09/22 01:21:38;;;;;;;3.67;1.90;;;;;;;7.38;100.00;101638.69;5190042;28;20725;-74
2022/09/22 01:24:22;;;;;;;4.53;2.00;;;;;;;7.36;100.00;101639.56;5183909;28;20263;-73
2022/09/22 01:27:22;;;;;;;7.53;2.15;;;;;;;7.25;100.00;101638.75;5189053;28;20168;-74
2022/09/22 01:30:12;;;;;;;5.95;2.17;;;;;;;7.26;100.00;101637.88;5183592;28;20040;-74
2022/09/22 01:32:59;;;;;;;6.93;2.42;;;;;;;7.26;100.00;101639.63;5189439;28;20079;-74
2022/09/22 01:35:39;;;;;;;5.28;2.38;;;;;;;7.29;100.00;101651.75;5191915;28;20368;-74
2022/09/22 01:38:09;;;;;;;4.22;1.73;;;;;;;7.14;100.00;101643.13;5189513;28;20497;-73
2022/09/22 01:41:00;;;;;;;5.67;1.60;;;;;;;7.30;100.00;101644.78;5188420;28;20033;-74
2022/09/22 01:43:58;;;;;;;3.10;1.50;;;;;;;7.18;100.00;101644.00;5188300;28;20277;-75
2022/09/22 01:46:39;;;;;;;1.92;1.35;;;;;;;7.21;100.00;101643.97;5190701;28;20037;-73
2022/09/22 01:49:14;;;;;;;4.72;1.80;;;;;;;6.95;100.00;101640.63;5187692;28;20088;-73
2022/09/22 01:51:50;;;;;;;3.55;1.65;;;;;;;6.92;100.00;101638.06;5191300;28;20159;-74
2022/09/22 01:54:44;;;;;;;2.47;1.30;;;;;;;7.15;100.00;101634.50;5183528;28;20071;-74
2022/09/22 01:57:25;;;;;;;4.22;1.60;;;;;;;7.24;100.00;101636.19;5189704;28;20498;-74
2022/09/22 02:00:02;;;;;;;3.40;1.63;;;;;;;7.35;100.00;101637.84;5182886;28;20025;-75
2022/09/22 02:02:41;;;;;;;3.55;1.30;;;;;;;7.28;100.00;101637.88;5191613;28;20175;-74
2022/09/22 02:05:19;;;;;;;2.38;1.40;;;;;;;7.26;100.00;101632.69;5188739;28;20021;-74
2022/09/22 02:07:53;;;;;;;4.28;1.80;;;;;;;7.24;100.00;101633.59;5189640;28;20033;-74
2022/09/22 02:10:31;;;;;;;3.30;1.50;;;;;;;7.42;100.00;101632.59;5187528;28;20381;-74
2022/09/22 02:13:04;;;;;;;4.38;1.70;;;;;;;7.39;100.00;101629.16;5187861;28;20037;-74
2022/09/22 02:18:41;;;;;;;3.50;1.63;;;;;;;7.39;100.00;101630.00;5187166;28;20037;-75
2022/09/22 02:21:14;;;;;;;2.33;1.35;;;;;;;7.53;100.00;101620.38;5188002;28;20068;-73
2022/09/22 02:23:45;;;;;;;5.93;1.88;;;;;;;7.29;100.00;101622.25;5184500;28;20022;-74
2022/09/22 02:26:22;;;;;;;2.40;1.50;;;;;;;7.36;100.00;101616.19;5183791;28;20036;-74
2022/09/22 02:28:59;;;;;;;4.85;1.88;;;;;;;7.40;100.00;101616.16;5188527;28;20482;-74
2022/09/22 02:31:33;;;;;;;3.40;1.60;;;;;;;7.25;100.00;101624.91;5191545;28;20076;-74
2022/09/22 02:34:05;;;;;;;3.38;1.90;;;;;;;7.07;100.00;101627.59;5190960;28;20048;-74
2022/09/22 02:36:54;;;;;;;5.10;1.52;;;;;;;6.81;100.00;101630.31;5190619;28;20486;-72
2022/09/22 02:39:35;;;;;;;3.10;1.20;;;;;;;6.81;100.00;101632.03;5189329;28;20030;-74
2022/09/22 02:42:29;;;;;;;2.53;1.38;;;;;;;6.77;100.00;101622.53;5187928;28;20506;-74
2022/09/22 02:45:23;;;;;;;1.88;1.30;;;;;;;6.83;100.00;101619.88;5189777;28;20140;-74
2022/09/22 02:48:05;;;;;;;1.87;1.30;;;;;;;6.97;100.00;101615.50;5187427;28;20404;-73
2022/09/22 02:50:35;;;;;;;3.55;1.25;;;;;;;7.03;100.00;101610.28;5188403;28;20550;-74
2022/09/22 02:53:15;;;;;;;2.55;1.40;;;;;;;7.02;100.00;101612.03;5188139;28;20108;-74
2022/09/22 02:55:46;;;;;;;4.47;1.60;;;;;;;7.26;100.00;101611.88;5185660;28;20100;-74
2022/09/22 02:58:16;;;;;;;3.58;1.40;;;;;;;7.23;100.00;101614.50;5182764;28;20025;-74
2022/09/22 03:00:47;;;;;;;3.60;1.50;;;;;;;7.16;100.00;101610.22;5186064;28;20025;-74
2022/09/22 03:03:17;;;;;;;3.83;1.60;;;;;;;6.95;100.00;101617.25;5188173;28;20029;-74
2022/09/22 03:05:47;;;;;;;2.65;1.50;;;;;;;6.88;100.00;101605.13;5190219;28;20079;-74
2022/09/22 03:08:18;;;;;;;2.53;1.50;;;;;;;6.93;100.00;101606.84;5187085;28;20117;-74
2022/09/22 03:10:48;;;;;;;3.45;1.40;;;;;;;6.72;100.00;101608.66;5189585;28;20017;-74
2022/09/22 03:13:18;;;;;;;6.65;1.63;;;;;;;6.60;100.00;101611.31;5188022;28;20038;-74
2022/09/22 03:15:49;;;;;;;4.68;1.88;;;;;;;6.48;100.00;101598.38;5190023;28;20434;-74
2022/09/22 03:18:20;;;;;;;4.45;1.75;;;;;;;6.38;100.00;101600.13;5186300;28;20029;-74
2022/09/22 03:20:50;;;;;;;3.15;1.50;;;;;;;6.33;100.00;101595.81;5189315;28;20136;-74
2022/09/22 03:23:20;;;;;;;2.72;1.60;;;;;;;6.21;100.00;101595.81;5183151;28;20022;-74
2022/09/22 03:25:50;;;;;;;3.38;1.50;;;;;;;6.13;100.00;101597.56;5184819;28;20029;-74
2022/09/22 03:28:21;;;;;;;3.35;1.95;;;;;;;6.12;100.00;101591.50;5182853;28;20139;-74
2022/09/22 03:30:51;;;;;;;2.60;1.63;;;;;;;6.08;100.00;101588.94;5186236;28;20527;-74
2022/09/22 03:33:21;;;;;;;3.67;1.50;;;;;;;6.00;100.00;101596.72;5189302;28;20030;-74
2022/09/22 03:35:52;;;;;;;2.50;1.60;;;;;;;5.94;100.00;101590.69;5188875;28;20063;-75
2022/09/22 03:38:22;;;;;;;3.10;1.77;;;;;;;5.98;100.00;101593.28;5188296;28;20471;-74
2022/09/22 03:40:53;;;;;;;4.25;2.00;;;;;;;6.02;100.00;101587.22;5188824;28;20095;-74
2022/09/22 03:43:24;;;;;;;3.47;2.00;;;;;;;6.04;100.00;101577.69;5188124;28;20450;-74
2022/09/22 03:45:58;;;;;;;3.67;1.92;;;;;;;6.06;100.00;101588.09;5188351;28;20037;-73
2022/09/22 03:48:30;;;;;;;4.40;2.33;;;;;;;6.15;100.00;101585.47;5189039;28;20274;-74
2022/09/22 03:51:00;;;;;;;7.63;2.25;;;;;;;6.24;100.00;101580.25;5197003;28;20029;-74
2022/09/22 03:53:31;;;;;;;3.75;2.20;;;;;;;6.28;100.00;101576.78;5183977;28;20026;-73
2022/09/22 03:56:07;;;;;;;3.92;1.88;;;;;;;6.31;100.00;101577.66;5183099;28;20829;-74
2022/09/22 03:58:39;;;;;;;3.28;1.90;;;;;;;6.32;100.00;101576.78;5190176;28;20018;-74
2022/09/22 04:01:10;;;;;;;4.47;1.95;;;;;;;6.34;100.00;101579.34;5189036;28;20487;-74
2022/09/22 04:03:40;;;;;;;4.22;1.80;;;;;;;6.32;100.00;101574.19;5194307;28;20029;-75
2022/09/22 04:06:11;;;;;;;4.40;1.92;;;;;;;6.39;100.00;101578.47;5189566;28;20033;-74
2022/09/22 04:08:41;;;;;;;3.72;1.88;;;;;;;6.43;100.00;101571.56;5192114;28;20050;-74
2022/09/22 04:11:12;;;;;;;3.72;1.70;;;;;;;6.39;100.00;101569.84;5192009;28;20378;-74
2022/09/22 04:13:42;;;;;;;4.13;1.73;;;;;;;6.35;100.00;101568.09;5193023;28;20113;-74
2022/09/22 04:16:12;;;;;;;3.78;1.70;;;;;;;6.37;100.00;101568.97;5190092;28;20060;-74
2022/09/22 04:18:43;;;;;;;4.00;1.77;;;;;;;6.45;100.00;101565.47;5189213;28;20045;-74
2022/09/22 04:21:13;;;;;;;4.30;1.70;;;;;;;6.52;100.00;101564.59;5184604;28;20033;-73
2022/09/22 04:23:43;;;;;;;3.47;1.80;;;;;;;6.58;100.00;101571.50;5186461;28;20026;-74
2022/09/22 04:26:13;;;;;;;4.63;1.83;;;;;;;6.50;100.00;101561.16;5188014;28;20037;-74
2022/09/22 04:28:44;;;;;;;3.80;1.88;;;;;;;6.33;100.00;101569.84;5192009;28;20032;-74
2022/09/22 04:31:14;;;;;;;3.58;1.40;;;;;;;6.34;100.00;101567.25;5190160;28;20438;-73
2022/09/22 04:33:44;;;;;;;4.75;1.50;;;;;;;6.45;100.00;101565.47;5193259;28;20021;-74
2022/09/22 04:36:15;;;;;;;3.83;1.40;;;;;;;6.44;100.00;101565.50;5188823;28;20029;-73
2022/09/22 04:38:45;;;;;;;3.15;1.50;;;;;;;6.31;100.00;101562.09;5192325;28;20048;-74
2022/09/22 04:41:15;;;;;;;1.50;1.23;;;;;;;6.37;100.00;101564.66;5190341;28;20026;-75
2022/09/22 04:43:45;;;;;;;4.38;1.33;;;;;;;6.32;100.00;101566.41;5192237;28;20398;-74
2022/09/22 04:46:16;;;;;;;4.10;1.75;;;;;;;6.28;100.00;101563.81;5190119;28;20100;-74
2022/09/22 04:48:46;;;;;;;2.58;1.48;;;;;;;6.20;100.00;101568.13;5192973;28;20036;-74
2022/09/22 04:51:16;;;;;;;6.22;1.67;;;;;;;6.20;100.00;101568.13;5196130;28;20056;-75
2022/09/22 04:53:47;;;;;;;2.88;1.17;;;;;;;6.12;100.00;101570.75;5186361;28;20183;-75
2022/09/22 04:56:17;;;;;;;5.90;1.63;;;;;;;6.09;100.00;101562.13;5186697;28;20057;-74
2022/09/22 04:58:47;;;;;;;2.72;1.30;;;;;;;6.24;100.00;101567.28;5191192;28;20017;-75
2022/09/22 05:01:18;;;;;;;3.72;1.50;;;;;;;6.15;100.00;101564.69;5191089;28;20025;-75
2022/09/22 05:03:51;;;;;;;3.10;1.45;;;;;;;6.16;100.00;101566.41;5191121;28;20053;-74
2022/09/22 05:06:21;;;;;;;5.63;1.80;;;;;;;6.26;100.00;101568.16;5191958;28;20025;-74
2022/09/22 05:08:52;;;;;;;3.53;1.48;;;;;;;6.38;100.00;101568.97;5190009;28;20025;-73
2022/09/22 05:11:22;;;;;;;3.92;1.52;;;;;;;6.40;100.00;101566.38;5189833;28;20034;-73
2022/09/22 05:13:52;;;;;;;2.88;1.60;;;;;;;6.52;100.00;101567.19;5194346;28;20035;-74
2022/09/22 05:16:23;;;;;;;5.40;1.88;;;;;;;6.52;100.00;101568.91;5193485;28;20517;-73
2022/09/22 05:18:55;;;;;;;4.75;2.10;;;;;;;6.62;100.00;101574.06;5188802;28;20044;-73
2022/09/22 05:21:25;;;;;;;4.60;1.90;;;;;;;6.73;100.00;101576.66;5192471;28;20103;-74
2022/09/22 05:23:56;;;;;;;4.15;2.00;;;;;;;6.72;100.00;101575.78;5194738;28;20113;-73
2022/09/22 05:26:27;;;;;;;4.82;1.50;;;;;;;6.54;100.00;101580.16;5193903;28;20108;-74
2022/09/22 05:28:57;;;;;;;4.20;1.85;;;;;;;6.64;100.00;101582.75;5190507;28;20026;-74
2022/09/22 05:31:27;;;;;;;4.85;1.70;;;;;;;6.75;100.00;101586.16;5192031;28;20038;-74
2022/09/22 05:33:58;;;;;;;5.03;1.80;;;;;;;6.74;100.00;101583.56;5191294;28;20092;-74
2022/09/22 05:36:28;;;;;;;6.50;1.70;;;;;;;6.78;100.00;101590.47;5189074;28;20101;-72
2022/09/22 05:38:59;;;;;;;5.65;1.92;;;;;;;6.97;100.00;101592.97;5191997;28;20127;-74
2022/09/22 05:41:32;;;;;;;4.22;1.80;;;;;;;7.04;100.00;101583.41;5192275;28;20148;-75
2022/09/22 05:44:03;;;;;;;3.00;1.60;;;;;;;7.16;100.00;101585.94;5191885;28;20033;-75
2022/09/22 05:46:33;;;;;;;4.32;1.83;;;;;;;7.18;100.00;101592.88;5193713;28;20037;-74
2022/09/22 05:49:03;;;;;;;6.78;2.08;;;;;;;7.19;100.00;101591.13;5194364;28;20029;-74
2022/09/22 05:51:34;;;;;;;5.32;1.65;;;;;;;7.27;100.00;101589.38;5194438;28;20025;-74
2022/09/22 05:54:04;;;;;;;4.95;1.90;;;;;;;7.24;100.00;101581.59;5186107;28;20459;-74
2022/09/22 05:56:34;;;;;;;4.35;1.90;;;;;;;7.20;100.00;101585.94;5188280;28;20083;-74
2022/09/22 05:59:05;;;;;;;6.32;1.80;;;;;;;7.32;100.00;101584.13;5188079;28;20029;-74
2022/09/22 06:01:35;;;;;;;3.47;1.70;;;;;;;7.45;100.00;101583.16;5191317;28;20051;-74
2022/09/22 06:04:05;;;;;;;7.13;1.90;;;;;;;7.59;100.00;101586.53;5186819;28;20084;-74
2022/09/22 06:06:36;;;;;;;5.30;2.13;;;;;;;7.46;100.00;101584.91;5188867;28;20058;-73
2022/09/22 06:09:06;;;;;;;5.85;1.98;;;;;;;7.48;100.00;101583.13;5188050;28;20051;-75
2022/09/22 06:11:37;;;;;;;5.65;2.20;;;;;;;7.58;100.00;101590.03;5190792;28;20112;-72
2022/09/22 06:14:07;;;;;;;8.20;2.35;;;;;;;7.41;100.00;101586.66;5187860;28;20029;-74
2022/09/22 06:16:37;;;;;;;6.68;2.28;;;;;;;7.54;100.00;101592.66;5190775;28;20025;-73
2022/09/22 06:19:08;;;;;;;4.28;1.83;;;;;;;7.48;100.00;101593.53;5188304;28;20105;-73
2022/09/22 06:21:38;;;;;;;6.93;2.08;;;;;;;7.60;100.00;101595.19;5183584;28;20021;-74
2022/09/22 06:24:08;;;;;;;3.30;1.95;;;;;;;7.69;100.00;101592.53;5181359;28;20487;-73
2022/09/22 06:26:39;;;;;;;6.60;2.13;;;;;;;7.79;100.00;101587.25;5187376;28;20033;-74
2022/09/22 06:29:09;;;;;;;6.15;2.33;;;;;;;7.94;100.00;101587.13;5190798;28;20021;-74
2022/09/22 06:31:40;;;;;;;4.18;2.25;;;;;;;8.10;100.00;101586.09;5187205;28;20021;-74
2022/09/22 06:34:11;;;;;;;6.50;2.38;;;;;;;8.14;100.00;101589.53;5187176;28;20029;-74
2022/09/22 06:36:41;;;;;;;4.13;2.08;;;;;;;8.36;100.00;101591.94;5187396;28;20040;-74
2022/09/22 06:39:13;;;;;;;6.85;2.40;;;;;;;8.52;100.00;101595.25;5188167;28;20371;-74
2022/09/22 06:41:46;;;;;;;8.68;3.10;;;;;;;8.53;100.00;101587.41;5187951;28;20025;-74
2022/09/22 06:44:16;;;;;;;6.18;2.50;;;;;;;8.69;100.00;101588.97;5205602;22;20056;-74
2022/09/22 06:46:47;;;;;;;9.23;2.83;;;;;;;8.84;100.00;101583.56;5191584;28;20029;-74
2022/09/22 06:49:17;;;;;;;9.23;2.80;;;;;;;8.98;100.00;101581.66;5187346;28;20892;-74
2022/09/22 06:51:48;;;;;;;6.60;2.30;;;;;;;8.85;100.00;101581.81;5189070;28;20168;-75
2022/09/22 06:54:18;;;;;;;7.88;2.80;;;;;;;9.07;100.00;101580.66;5184640;28;20446;-75
2022/09/22 06:56:49;;;;;;;7.20;2.63;;;;;;;9.10;100.00;101583.22;5157213;28;20045;-75
2022/09/22 06:59:19;;;;;;;9.15;3.17;;;;;;;9.20;100.00;101583.06;5169155;28;20519;-74
2022/09/22 07:01:50;;;;;;;10.88;3.10;;;;;;;9.27;100.00;101592.53;5164516;28;20022;-74
2022/09/22 07:04:22;;;;;;;6.45;2.65;;;;;;;9.38;100.00;101580.22;5165413;28;20068;-75
2022/09/22 07:06:52;;;;;;;5.25;2.50;;;;;;;9.53;100.00;101573.03;5166897;28;20033;-74
2022/09/22 07:09:22;;;;;;;7.25;2.72;;;;;;;9.54;100.00;101582.59;5162013;28;20030;-75
2022/09/22 07:11:52;;;;;;;5.20;2.40;;;;;;;10.20;100.00;101581.47;5167145;28;20034;-75
2022/09/22 07:14:24;;;;;;;5.38;2.05;;;;;;;12.24;100.00;101580.38;5168038;28;20156;-75
2022/09/22 07:16:54;;;;;;;7.53;1.80;;;;;;;14.38;90.48;101568.47;5165070;28;20026;-75
2022/09/22 07:19:24;;;;;;;5.88;2.00;;;;;;;15.53;81.81;101574.59;5165892;28;20026;-75
2022/09/22 07:21:55;;;;;;;5.55;1.70;;;;;;;16.85;74.98;101563.63;5164338;28;20536;-73
2022/09/22 07:24:26;;;;;;;6.50;1.90;;;;;;;17.16;71.64;101569.19;5161274;28;20026;-70
2022/09/22 07:27:01;;;;;;;3.40;1.42;;;;;;;17.93;69.74;101563.66;5165776;28;20034;-74
2022/09/22 07:29:32;;;;;;;4.38;1.70;;;;;;;18.28;69.97;101562.75;5169979;28;20452;-73
2022/09/22 07:32:02;;;;;;;4.53;1.50;;;;;;;16.89;75.93;101573.97;5161527;28;20039;-73
2022/09/22 07:34:33;;;;;;;5.35;1.40;;;;;;;18.14;68.71;101567.91;5162594;28;20029;-73
2022/09/22 07:37:03;;;;;;;6.18;1.80;;;;;;;18.50;68.46;101576.63;5164394;28;20049;-74
2022/09/22 07:39:33;;;;;;;6.03;1.90;;;;;;;18.98;69.33;101570.44;5167407;28;20018;-73
2022/09/22 07:42:04;;;;;;;6.63;1.80;;;;;;;18.68;68.13;101567.72;5167710;28;20034;-74
2022/09/22 07:50:16;;;;;;;4.95;1.90;;;;;;;17.98;73.25;101569.59;5164844;28;20092;-74
2022/09/22 07:52:51;;;;;;;4.15;1.63;;;;;;;19.06;70.60;101564.69;5169804;28;20030;-74
2022/09/22 07:55:23;;;;;;;7.30;2.20;;;;;;;18.19;70.74;101565.88;5157275;28;20103;-74
2022/09/22 07:57:56;;;;;;;5.13;1.90;;;;;;;18.17;71.72;101567.75;5166392;28;20026;-73
2022/09/22 08:00:31;;;;;;;5.45;1.63;;;;;;;20.49;67.99;101558.09;5166920;28;20438;-74
2022/09/22 08:03:02;;;;;;;8.05;2.20;;;;;;;21.21;61.77;101554.41;5168258;28;20150;-74
2022/09/22 08:05:33;;;;;;;4.97;2.05;;;;;;;19.79;67.60;101565.00;5166230;28;20061;-74
2022/09/22 08:08:04;;;;;;;6.70;2.50;;;;;;;20.15;67.42;101553.09;5168140;28;20018;-72
2022/09/22 08:10:35;;;;;;;7.30;3.45;;;;;;;18.77;69.24;101560.97;5164876;28;20301;-73
2022/09/22 08:13:05;;;;;;;7.18;2.72;;;;;;;19.78;68.15;101553.50;5168452;28;20018;-73
2022/09/22 08:15:35;;;;;;;7.53;3.00;;;;;;;19.99;67.74;101559.38;5164559;28;20053;-74
2022/09/22 08:18:06;;;;;;;7.93;2.55;;;;;;;19.91;64.21;101558.94;5167165;28;20025;-73
2022/09/22 08:20:36;;;;;;;7.03;2.22;;;;;;;21.87;60.80;101546.50;5166007;28;20026;-73
2022/09/22 08:23:07;;;;;;;8.53;2.13;;;;;;;24.30;56.61;101538.53;5169301;28;20076;-73
2022/09/22 08:25:38;;;;;;;6.38;2.45;;;;;;;21.59;62.18;101546.63;5157134;28;20304;-74
2022/09/22 08:28:09;;;;;;;6.43;2.40;;;;;;;19.77;65.94;101569.53;5167154;28;20312;-73
2022/09/22 08:30:44;;;;;;;5.65;2.50;;;;;;;21.10;65.03;101551.56;5165944;28;20674;-74
2022/09/22 08:33:15;;;;;;;;;;;;;;;19.25;68.06;101558.34;5169295;28;20176;-73
2022/09/22 08:35:53;;;;;;;5.10;2.15;;;;;;;20.18;69.13;101557.38;5170316;28;20374;-73
2022/09/22 08:38:26;;;;;;;8.70;2.63;;;;;;;20.77;66.33;101548.34;5165673;28;20054;-74
2022/09/22 08:41:14;;;;;;;5.68;2.20;;;;;;;21.50;62.01;101545.41;5166867;28;20034;-74
2022/09/22 08:43:54;;;;;;;5.72;2.08;;;;;;;22.81;60.80;101539.94;5166337;28;20026;-74
2022/09/22 08:46:37;;;;;;;7.75;2.30;;;;;;;22.59;59.51;101552.22;5166227;28;20500;-74
2022/09/22 08:52:24;;;;;;;;;;;;;;;24.39;56.33;101535.13;5169972;28;20154;-73
2022/09/22 08:54:58;;;;;;;9.95;3.30;;;;;;;23.91;57.06;101546.03;5166704;28;19928;-73
2022/09/22 08:57:34;;;;;;;7.75;3.17;;;;;;;23.44;56.76;101546.00;5168695;28;20026;-73
2022/09/22 09:00:16;;;;;;;8.80;3.20;;;;;;;22.46;59.39;101554.03;5163922;28;20141;-74
2022/09/22 09:02:46;;;;;;;8.63;2.90;;;;;;;21.19;62.45;101552.78;5171693;28;20452;-74
2022/09/22 09:05:37;;;;;;;11.20;2.88;;;;;;;20.39;64.07;101556.94;5171569;28;20145;-74
2022/09/22 09:08:13;;;;;;;6.60;2.45;;;;;;;20.40;64.91;101548.03;5167581;28;20045;-73
2022/09/22 09:10:53;;;;;;;8.85;2.95;;;;;;;19.88;65.98;101562.66;5168763;28;20084;-73
2022/09/22 09:13:44;;;;;;;7.20;2.25;;;;;;;19.08;66.12;101566.34;5165006;28;20026;-73
2022/09/22 09:16:44;;;;;;;7.75;2.33;;;;;;;18.67;70.53;101558.06;5167083;28;20150;-73
2022/09/22 09:19:29;;;;;;;6.68;2.00;;;;;;;18.63;72.08;101556.47;5166161;28;20253;-72
2022/09/22 09:22:06;;;;;;;4.25;1.85;;;;;;;18.38;71.45;101558.72;5170367;28;20131;-74
2022/09/22 09:24:44;;;;;;;8.07;2.25;;;;;;;17.79;73.90;101563.50;5161288;28;20031;-76
2022/09/22 09:27:22;;;;;;;8.02;2.10;;;;;;;17.92;74.13;101557.53;5165939;28;20366;-75
2022/09/22 09:29:53;;;;;;;5.38;1.58;;;;;;;18.44;72.28;101556.63;5166306;28;20168;-75
2022/09/22 09:32:33;;;;;;;6.63;1.87;;;;;;;18.32;69.63;101562.53;5168397;28;20033;-74
2022/09/22 09:35:04;;;;;;;6.72;2.25;;;;;;;18.15;69.90;101553.72;5170856;28;20385;-75
2022/09/22 09:37:34;;;;;;;8.93;1.85;;;;;;;18.23;70.46;101556.81;5165353;28;20181;-74
2022/09/22 09:40:14;;;;;;;10.25;2.47;;;;;;;17.85;72.53;101556.09;5165781;28;20138;-74
2022/09/22 09:42:52;;;;;;;9.18;2.22;;;;;;;18.27;70.28;101553.06;5165039;28;20436;-74
2022/09/22 09:45:27;;;;;;;7.93;2.08;;;;;;;18.59;69.48;101549.66;5166169;28;20081;-74
2022/09/22 09:48:03;;;;;;;7.65;2.40;;;;;;;18.31;71.07;101550.25;5165845;28;20526;-73
2022/09/22 09:50:34;;;;;;;9.52;2.90;;;;;;;17.80;73.85;101549.34;5166671;28;20132;-73
2022/09/22 09:53:05;;;;;;;6.63;2.17;;;;;;;18.27;72.00;101539.84;5168270;28;20038;-72
2022/09/22 09:55:35;;;;;;;5.90;1.98;;;;;;;18.08;70.70;101547.03;5167058;28;20029;-74
2022/09/22 09:58:09;;;;;;;7.57;1.83;;;;;;;18.31;71.93;101541.47;5169513;28;20037;-73
2022/09/22 10:00:56;;;;;;;9.13;2.22;;;;;;;18.03;72.66;101541.13;5164953;28;20037;-73
2022/09/22 10:03:33;;;;;;;7.28;2.00;;;;;;;18.21;75.57;101537.53;5166869;28;20096;-73
2022/09/22 10:06:07;;;;;;;6.20;1.63;;;;;;;18.16;72.99;101540.41;5167312;28;20034;-73
2022/09/22 10:08:46;;;;;;;3.53;1.50;;;;;;;17.92;73.47;101540.78;5167521;28;20022;-74
2022/09/22 10:11:28;;;;;;;4.45;1.38;;;;;;;18.20;73.38;101533.16;5167074;28;20022;-73
2022/09/22 10:13:59;;;;;;;5.35;1.20;;;;;;;18.52;73.40;101532.38;5164014;28;20058;-73
2022/09/22 10:16:32;;;;;;;5.05;1.52;;;;;;;18.39;71.80;101534.81;5164585;28;20117;-74
2022/09/22 10:19:23;;;;;;;7.10;1.40;;;;;;;18.31;69.19;101526.41;5169708;28;20029;-74
2022/09/22 10:22:29;;;;;;;4.55;1.10;;;;;;;17.99;67.19;101528.97;5160061;28;20031;-73
2022/09/22 10:25:02;;;;;;;6.45;1.20;;;;;;;17.53;71.19;101526.91;5093306;29;20047;-72
2022/09/22 10:27:32;;;;;;;6.43;1.30;;;;;;;17.66;74.50;101526.22;5156625;28;20675;-73
2022/09/22 10:30:09;;;;;;;8.02;1.35;;;;;;;17.69;72.22;101523.41;5166563;28;20082;-73
2022/09/22 10:32:41;;;;;;;4.00;0.98;;;;;;;17.66;70.12;101518.28;5166168;28;20034;-73
2022/09/22 10:35:32;;;;;;;4.07;1.00;;;;;;;18.01;70.56;101511.25;5169579;28;20028;-73
2022/09/22 10:38:19;;;;;;;3.45;1.00;;;;;;;18.05;69.88;101520.72;5168495;28;20030;-74
2022/09/22 10:41:01;;;;;;;3.95;1.13;;;;;;;18.03;69.55;101512.00;5164078;28;20051;-73
2022/09/22 10:43:36;;;;;;;6.78;1.27;;;;;;;18.33;71.92;101515.75;5168161;28;20039;-73
2022/09/22 10:46:27;;;;;;;2.85;0.90;;;;;;;18.38;69.64;101505.78;5168022;28;20052;-73
2022/09/22 10:49:03;;;;;;;3.83;1.02;;;;;;;18.12;72.33;101501.81;5166454;28;20496;-73
2022/09/22 10:51:55;;;;;;;4.75;1.08;;;;;;;18.26;73.53;101504.59;5161938;28;20065;-73
2022/09/22 10:54:57;;;;;;;6.53;1.05;;;;;;;18.43;73.16;101501.09;5165674;28;20033;-73
2022/09/22 10:57:36;;;;;;;2.95;0.98;;;;;;;18.34;70.55;101497.13;5164312;28;20030;-73
2022/09/22 11:00:16;;;;;;;5.57;1.10;;;;;;;18.29;69.85;101500.94;5165322;28;20038;-73
2022/09/22 11:03:01;;;;;;;7.97;0.90;;;;;;;17.95;70.24;101493.00;5166878;28;20101;-72
2022/09/22 11:12:16;;;;;;;4.28;1.10;;;;;;;17.27;70.93;101483.19;5166405;28;20037;-73
2022/09/22 11:15:05;;;;;;;4.75;1.05;;;;;;;17.47;69.73;101485.75;5166297;28;20496;-71
2022/09/22 11:17:55;;;;;;;4.88;1.15;;;;;;;17.37;69.51;101484.50;5165131;28;20484;-73
2022/09/22 11:20:40;;;;;;;2.10;0.80;;;;;;;17.59;68.09;101479.00;5167264;28;20567;-73
2022/09/22 11:23:29;;;;;;;2.47;0.87;;;;;;;17.77;68.14;101476.31;5163561;28;20022;-73
2022/09/22 11:26:15;;;;;;;3.55;0.90;;;;;;;17.63;68.94;101477.94;5165296;28;20038;-73
2022/09/22 11:29:25;;;;;;;4.07;0.90;;;;;;;17.66;67.54;101465.41;5162990;28;20349;-73
2022/09/22 11:32:33;;;;;;;6.88;1.15;;;;;;;17.39;67.83;101471.22;5167575;28;20022;-73
2022/09/22 11:35:28;;;;;;;3.03;0.80;;;;;;;17.36;65.09;101459.03;5168542;28;20434;-73
2022/09/22 11:38:17;;;;;;;2.05;0.75;;;;;;;17.40;66.03;101457.94;5166359;28;20040;-72
2022/09/22 11:41:14;;;;;;;1.80;0.70;;;;;;;17.33;66.29;101460.91;5166349;28;20101;-73
2022/09/22 11:44:02;;;;;;;2.80;0.95;;;;;;;17.44;68.68;101461.25;5165522;28;20041;-73
2022/09/22 11:46:42;;;;;;;2.20;0.85;;;;;;;17.41;68.20;101459.63;5165483;28;20100;-72
2022/09/22 11:49:37;;;;;;;4.35;1.00;;;;;;;17.37;68.47;101449.28;5165484;28;20032;-72
2022/09/22 11:52:10;;;;;;;1.42;0.80;;;;;;;17.40;69.50;101450.00;5164510;28;20030;-73
2022/09/22 11:54:52;;;;;;;2.60;0.82;;;;;;;17.39;68.52;101447.41;5163890;28;20492;-73
2022/09/22 11:57:26;;;;;;;2.47;0.80;;;;;;;17.42;69.05;101431.41;5158530;28;20066;-73
2022/09/22 12:00:04;;;;;;;1.65;0.60;;;;;;;17.37;66.41;101436.06;5166828;28;20053;-73
2022/09/22 12:02:45;;;;;;;1.77;0.70;;;;;;;17.56;64.59;101443.03;5166079;28;20385;-73
2022/09/22 12:05:27;;;;;;;2.45;0.90;;;;;;;17.41;66.80;101442.91;5165379;28;20037;-73
2022/09/22 12:08:06;;;;;;;2.28;0.80;;;;;;;17.21;69.49;101441.25;5165504;28;20038;-73
2022/09/22 12:10:43;;;;;;;2.47;0.70;;;;;;;17.03;71.10;101430.69;5167354;28;20403;-73
2022/09/22 12:13:20;;;;;;;1.92;0.85;;;;;;;17.29;69.48;101431.13;5165390;28;20533;-73
2022/09/22 12:16:09;;;;;;;2.30;0.80;;;;;;;17.43;70.77;101435.75;5167383;28;20058;-73
2022/09/22 12:18:58;;;;;;;2.53;0.80;;;;;;;17.00;69.35;101425.56;5164462;28;20030;-73
2022/09/22 12:21:46;;;;;;;1.38;0.65;;;;;;;16.99;69.69;101423.84;5169875;28;20077;-73
2022/09/22 12:24:16;;;;;;;2.38;0.75;;;;;;;17.04;69.12;101416.56;5164238;28;20030;-73